sensor_id;sensor_type;location;lat;lon;timestamp;temperature;humidity
10175;DHT22;18221;38.704;0.152;2023-02-15T00:04:32;10.60;99.90
10175;DHT22;18221;38.704;0.152;2023-02-15T00:07:18;10.70;99.90
10175;DHT22;18221;38.704;0.152;2023-02-15T00:09:47;10.70;99.90
10175;DHT22;18221;38.704;0.152;2023-02-15T00:12:16;10.60;99.90
10175;DHT22;18221;38.704;0.152;2023-02-15T00:14:45;10.60;99.90
10175;DHT22;18221;38.704;0.152;2023-02-15T00:17:13;10.60;99.90
10175;DHT22;18221;38.704;0.152;2023-02-15T00:19:43;10.60;99.90
10175;DHT22;18221;38.704;0.152;2023-02-15T00:22:12;10.50;99.90
10175;DHT22;18221;38.704;0.152;2023-02-15T00:24:41;10.50;99.90
10175;DHT22;18221;38.704;0.152;2023-02-15T00:27:10;10.50;99.90
10175;DHT22;18221;38.704;0.152;2023-02-15T00:29:38;10.50;99.90
10175;DHT22;18221;38.704;0.152;2023-02-15T00:32:07;10.50;99.90
10175;DHT22;18221;38.704;0.152;2023-02-15T00:34:35;10.50;99.90
10175;DHT22;18221;38.704;0.152;2023-02-15T00:37:06;10.50;99.90
10175;DHT22;18221;38.704;0.152;2023-02-15T00:39:34;10.40;99.90
10175;DHT22;18221;38.704;0.152;2023-02-15T00:42:03;10.40;99.90
10175;DHT22;18221;38.704;0.152;2023-02-15T00:44:31;10.40;99.90
10175;DHT22;18221;38.704;0.152;2023-02-15T00:47:00;10.40;99.90
10175;DHT22;18221;38.704;0.152;2023-02-15T00:49:28;10.40;99.90
10175;DHT22;18221;38.704;0.152;2023-02-15T00:51:57;10.40;99.90
10175;DHT22;18221;38.704;0.152;2023-02-15T00:54:27;10.30;99.90
10175;DHT22;18221;38.704;0.152;2023-02-15T00:56:55;10.40;99.90
10175;DHT22;18221;38.704;0.152;2023-02-15T00:59:24;10.40;99.90
10175;DHT22;18221;38.704;0.152;2023-02-15T01:01:53;10.30;99.90
10175;DHT22;18221;38.704;0.152;2023-02-15T01:04:21;10.30;99.90
10175;DHT22;18221;38.704;0.152;2023-02-15T01:06:49;10.30;99.90
10175;DHT22;18221;38.704;0.152;2023-02-15T01:09:18;10.30;99.90
10175;DHT22;18221;38.704;0.152;2023-02-15T01:11:48;10.50;99.90
10175;DHT22;18221;38.704;0.152;2023-02-15T01:14:16;10.30;99.90
10175;DHT22;18221;38.704;0.152;2023-02-15T01:16:45;10.30;99.90
10175;DHT22;18221;38.704;0.152;2023-02-15T01:19:14;10.30;99.90
10175;DHT22;18221;38.704;0.152;2023-02-15T01:21:42;10.30;99.90
10175;DHT22;18221;38.704;0.152;2023-02-15T01:24:12;10.20;99.90
10175;DHT22;18221;38.704;0.152;2023-02-15T01:26:41;10.30;99.90
10175;DHT22;18221;38.704;0.152;2023-02-15T01:29:11;10.80;99.90
10175;DHT22;18221;38.704;0.152;2023-02-15T01:31:39;10.30;99.90
10175;DHT22;18221;38.704;0.152;2023-02-15T01:34:08;10.30;99.90
10175;DHT22;18221;38.704;0.152;2023-02-15T01:36:36;10.20;99.90
10175;DHT22;18221;38.704;0.152;2023-02-15T01:39:05;10.20;99.90
10175;DHT22;18221;38.704;0.152;2023-02-15T01:41:34;10.30;99.90
10175;DHT22;18221;38.704;0.152;2023-02-15T01:47:09;10.20;99.90
10175;DHT22;18221;38.704;0.152;2023-02-15T01:49:42;10.10;99.90
10175;DHT22;18221;38.704;0.152;2023-02-15T01:52:16;10.20;99.90
10175;DHT22;18221;38.704;0.152;2023-02-15T01:54:47;10.20;99.90
10175;DHT22;18221;38.704;0.152;2023-02-15T01:57:19;10.20;99.90
10175;DHT22;18221;38.704;0.152;2023-02-15T01:59:54;10.20;99.90
10175;DHT22;18221;38.704;0.152;2023-02-15T02:02:28;10.10;99.90
10175;DHT22;18221;38.704;0.152;2023-02-15T02:04:59;10.20;99.90
10175;DHT22;18221;38.704;0.152;2023-02-15T02:07:37;10.10;99.90
10175;DHT22;18221;38.704;0.152;2023-02-15T02:10:11;10.10;99.90
10175;DHT22;18221;38.704;0.152;2023-02-15T02:12:43;10.10;99.90
10175;DHT22;18221;38.704;0.152;2023-02-15T02:15:13;10.10;99.90
10175;DHT22;18221;38.704;0.152;2023-02-15T02:17:53;10.10;99.90
10175;DHT22;18221;38.704;0.152;2023-02-15T02:20:52;10.10;99.90
10175;DHT22;18221;38.704;0.152;2023-02-15T02:23:47;10.10;99.90
10175;DHT22;18221;38.704;0.152;2023-02-15T02:26:51;10.10;99.90
10175;DHT22;18221;38.704;0.152;2023-02-15T02:36:24;10.10;99.90
10175;DHT22;18221;38.704;0.152;2023-02-15T02:39:11;10.10;99.90
10175;DHT22;18221;38.704;0.152;2023-02-15T02:41:56;10.10;99.90
10175;DHT22;18221;38.704;0.152;2023-02-15T02:44:33;10.10;99.90
10175;DHT22;18221;38.704;0.152;2023-02-15T02:47:12;10.10;99.90
10175;DHT22;18221;38.704;0.152;2023-02-15T02:49:52;10.10;99.90
10175;DHT22;18221;38.704;0.152;2023-02-15T02:52:39;10.00;99.90
10175;DHT22;18221;38.704;0.152;2023-02-15T02:55:13;10.00;99.90
10175;DHT22;18221;38.704;0.152;2023-02-15T02:57:53;10.10;99.90
10175;DHT22;18221;38.704;0.152;2023-02-15T03:00:26;10.10;99.90
10175;DHT22;18221;38.704;0.152;2023-02-15T03:03:01;10.10;99.90
10175;DHT22;18221;38.704;0.152;2023-02-15T03:05:39;10.00;99.90
10175;DHT22;18221;38.704;0.152;2023-02-15T03:08:14;10.10;99.90
10175;DHT22;18221;38.704;0.152;2023-02-15T03:10:48;10.10;99.90
10175;DHT22;18221;38.704;0.152;2023-02-15T03:13:23;10.10;99.90
10175;DHT22;18221;38.704;0.152;2023-02-15T03:15:53;10.10;99.90
10175;DHT22;18221;38.704;0.152;2023-02-15T03:18:44;10.10;99.90
10175;DHT22;18221;38.704;0.152;2023-02-15T03:21:23;10.10;99.90
10175;DHT22;18221;38.704;0.152;2023-02-15T03:24:01;10.00;99.90
10175;DHT22;18221;38.704;0.152;2023-02-15T03:26:34;10.00;99.90
10175;DHT22;18221;38.704;0.152;2023-02-15T03:29:07;10.10;99.90
10175;DHT22;18221;38.704;0.152;2023-02-15T03:31:41;10.00;99.90
10175;DHT22;18221;38.704;0.152;2023-02-15T03:34:15;10.00;99.90
10175;DHT22;18221;38.704;0.152;2023-02-15T03:36:50;10.10;99.90
10175;DHT22;18221;38.704;0.152;2023-02-15T03:39:31;10.10;99.90
10175;DHT22;18221;38.704;0.152;2023-02-15T03:42:09;10.10;99.90
10175;DHT22;18221;38.704;0.152;2023-02-15T03:44:49;10.00;99.90
10175;DHT22;18221;38.704;0.152;2023-02-15T03:47:26;10.00;99.90
10175;DHT22;18221;38.704;0.152;2023-02-15T03:50:01;10.00;99.90
10175;DHT22;18221;38.704;0.152;2023-02-15T03:52:56;10.00;99.90
10175;DHT22;18221;38.704;0.152;2023-02-15T03:55:26;10.00;99.90
10175;DHT22;18221;38.704;0.152;2023-02-15T03:57:55;9.90;99.90
10175;DHT22;18221;38.704;0.152;2023-02-15T04:00:46;10.00;99.90
10175;DHT22;18221;38.704;0.152;2023-02-15T04:03:40;10.00;99.90
10175;DHT22;18221;38.704;0.152;2023-02-15T04:06:12;10.00;99.90
10175;DHT22;18221;38.704;0.152;2023-02-15T04:08:42;10.00;99.90
10175;DHT22;18221;38.704;0.152;2023-02-15T04:11:42;9.70;99.90
10175;DHT22;18221;38.704;0.152;2023-02-15T04:14:11;10.00;99.90
10175;DHT22;18221;38.704;0.152;2023-02-15T04:16:53;9.90;99.90
10175;DHT22;18221;38.704;0.152;2023-02-15T04:19:21;9.90;99.90
10175;DHT22;18221;38.704;0.152;2023-02-15T04:22:07;10.00;99.90
10175;DHT22;18221;38.704;0.152;2023-02-15T04:24:53;9.90;99.90
10175;DHT22;18221;38.704;0.152;2023-02-15T04:27:38;10.00;99.90
10175;DHT22;18221;38.704;0.152;2023-02-15T04:30:08;9.90;99.90
10175;DHT22;18221;38.704;0.152;2023-02-15T04:32:38;9.90;99.90
10175;DHT22;18221;38.704;0.152;2023-02-15T04:35:07;9.90;99.90
10175;DHT22;18221;38.704;0.152;2023-02-15T04:37:37;9.90;99.90
10175;DHT22;18221;38.704;0.152;2023-02-15T04:40:11;9.90;99.90
10175;DHT22;18221;38.704;0.152;2023-02-15T04:42:41;9.90;99.90
10175;DHT22;18221;38.704;0.152;2023-02-15T04:45:09;9.90;99.90
10175;DHT22;18221;38.704;0.152;2023-02-15T04:47:38;10.00;99.90
10175;DHT22;18221;38.704;0.152;2023-02-15T04:50:07;9.90;99.90
10175;DHT22;18221;38.704;0.152;2023-02-15T04:52:36;9.90;99.90
10175;DHT22;18221;38.704;0.152;2023-02-15T04:55:05;9.90;99.90
10175;DHT22;18221;38.704;0.152;2023-02-15T04:57:35;9.80;99.90
10175;DHT22;18221;38.704;0.152;2023-02-15T05:00:05;9.80;99.90
10175;DHT22;18221;38.704;0.152;2023-02-15T05:02:35;9.80;99.90
10175;DHT22;18221;38.704;0.152;2023-02-15T05:05:04;9.80;99.90
10175;DHT22;18221;38.704;0.152;2023-02-15T05:07:33;9.80;99.90
10175;DHT22;18221;38.704;0.152;2023-02-15T05:10:01;9.90;99.90
10175;DHT22;18221;38.704;0.152;2023-02-15T05:12:32;9.90;99.90
10175;DHT22;18221;38.704;0.152;2023-02-15T05:15:00;9.90;99.90
10175;DHT22;18221;38.704;0.152;2023-02-15T05:17:29;9.90;99.90
10175;DHT22;18221;38.704;0.152;2023-02-15T05:19:57;9.90;99.90
10175;DHT22;18221;38.704;0.152;2023-02-15T05:22:26;10.00;99.90
10175;DHT22;18221;38.704;0.152;2023-02-15T05:24:54;9.90;99.90
10175;DHT22;18221;38.704;0.152;2023-02-15T05:27:42;9.90;99.90
10175;DHT22;18221;38.704;0.152;2023-02-15T05:30:27;9.90;99.90
10175;DHT22;18221;38.704;0.152;2023-02-15T05:32:56;9.80;99.90
10175;DHT22;18221;38.704;0.152;2023-02-15T05:35:24;9.80;99.90
10175;DHT22;18221;38.704;0.152;2023-02-15T05:37:53;9.80;99.90
10175;DHT22;18221;38.704;0.152;2023-02-15T05:40:22;9.80;99.90
10175;DHT22;18221;38.704;0.152;2023-02-15T05:42:52;9.80;99.90
10175;DHT22;18221;38.704;0.152;2023-02-15T05:45:20;9.80;99.90
10175;DHT22;18221;38.704;0.152;2023-02-15T05:47:49;9.80;99.90
10175;DHT22;18221;38.704;0.152;2023-02-15T05:50:18;9.80;99.90
10175;DHT22;18221;38.704;0.152;2023-02-15T05:52:46;9.80;99.90
10175;DHT22;18221;38.704;0.152;2023-02-15T05:55:15;9.80;99.90
10175;DHT22;18221;38.704;0.152;2023-02-15T05:57:43;9.70;99.90
10175;DHT22;18221;38.704;0.152;2023-02-15T06:00:15;9.80;99.90
10175;DHT22;18221;38.704;0.152;2023-02-15T06:02:43;9.70;99.90
10175;DHT22;18221;38.704;0.152;2023-02-15T06:05:12;9.70;99.90
10175;DHT22;18221;38.704;0.152;2023-02-15T06:07:43;9.80;99.90
10175;DHT22;18221;38.704;0.152;2023-02-15T06:10:11;9.80;99.90
10175;DHT22;18221;38.704;0.152;2023-02-15T06:12:40;9.80;99.90
10175;DHT22;18221;38.704;0.152;2023-02-15T06:15:09;9.80;99.90
10175;DHT22;18221;38.704;0.152;2023-02-15T06:17:41;9.70;99.90
10175;DHT22;18221;38.704;0.152;2023-02-15T06:20:10;9.70;99.90
10175;DHT22;18221;38.704;0.152;2023-02-15T06:22:39;9.70;99.90
10175;DHT22;18221;38.704;0.152;2023-02-15T06:25:08;9.70;99.90
10175;DHT22;18221;38.704;0.152;2023-02-15T06:27:37;9.70;99.90
10175;DHT22;18221;38.704;0.152;2023-02-15T06:30:12;9.70;99.90
10175;DHT22;18221;38.704;0.152;2023-02-15T06:32:43;9.70;99.90
10175;DHT22;18221;38.704;0.152;2023-02-15T06:35:12;9.70;99.90
10175;DHT22;18221;38.704;0.152;2023-02-15T06:37:45;9.70;99.90
10175;DHT22;18221;38.704;0.152;2023-02-15T06:40:14;9.80;99.90
10175;DHT22;18221;38.704;0.152;2023-02-15T06:42:43;9.80;99.90
10175;DHT22;18221;38.704;0.152;2023-02-15T06:45:12;9.80;99.90
10175;DHT22;18221;38.704;0.152;2023-02-15T06:47:42;9.80;99.90
10175;DHT22;18221;38.704;0.152;2023-02-15T06:50:11;9.80;99.90
10175;DHT22;18221;38.704;0.152;2023-02-15T06:52:40;9.80;99.90
10175;DHT22;18221;38.704;0.152;2023-02-15T06:55:08;9.80;99.90
10175;DHT22;18221;38.704;0.152;2023-02-15T06:57:39;9.80;99.90
10175;DHT22;18221;38.704;0.152;2023-02-15T07:00:09;9.70;99.90
10175;DHT22;18221;38.704;0.152;2023-02-15T07:02:38;9.70;99.90
10175;DHT22;18221;38.704;0.152;2023-02-15T07:05:08;9.70;99.90
10175;DHT22;18221;38.704;0.152;2023-02-15T07:07:37;9.70;99.90
10175;DHT22;18221;38.704;0.152;2023-02-15T07:10:07;9.70;99.90
10175;DHT22;18221;38.704;0.152;2023-02-15T07:12:36;9.70;99.90
10175;DHT22;18221;38.704;0.152;2023-02-15T07:15:11;9.60;99.90
10175;DHT22;18221;38.704;0.152;2023-02-15T07:17:42;9.70;99.90
10175;DHT22;18221;38.704;0.152;2023-02-15T07:20:17;9.70;99.90
10175;DHT22;18221;38.704;0.152;2023-02-15T07:22:48;9.70;99.90
10175;DHT22;18221;38.704;0.152;2023-02-15T07:25:17;9.70;99.90
10175;DHT22;18221;38.704;0.152;2023-02-15T07:27:46;9.70;99.90
10175;DHT22;18221;38.704;0.152;2023-02-15T07:30:16;9.70;99.90
10175;DHT22;18221;38.704;0.152;2023-02-15T07:32:45;9.70;99.90
10175;DHT22;18221;38.704;0.152;2023-02-15T07:35:33;9.70;99.90
10175;DHT22;18221;38.704;0.152;2023-02-15T07:38:02;9.70;99.90
10175;DHT22;18221;38.704;0.152;2023-02-15T07:40:30;9.80;99.90
10175;DHT22;18221;38.704;0.152;2023-02-15T07:42:59;9.80;99.90
10175;DHT22;18221;38.704;0.152;2023-02-15T07:45:27;9.80;99.90
10175;DHT22;18221;38.704;0.152;2023-02-15T07:47:56;9.90;99.90
10175;DHT22;18221;38.704;0.152;2023-02-15T07:50:24;9.90;99.90
10175;DHT22;18221;38.704;0.152;2023-02-15T07:52:55;9.90;99.90
10175;DHT22;18221;38.704;0.152;2023-02-15T07:55:25;9.90;99.90
10175;DHT22;18221;38.704;0.152;2023-02-15T07:57:53;9.90;99.90
10175;DHT22;18221;38.704;0.152;2023-02-15T08:00:23;10.00;99.90
10175;DHT22;18221;38.704;0.152;2023-02-15T08:02:54;10.10;99.90
10175;DHT22;18221;38.704;0.152;2023-02-15T08:05:45;10.10;99.90
10175;DHT22;18221;38.704;0.152;2023-02-15T08:08:15;10.10;99.90
10175;DHT22;18221;38.704;0.152;2023-02-15T08:11:02;10.10;99.90
10175;DHT22;18221;38.704;0.152;2023-02-15T08:13:49;10.20;99.90
10175;DHT22;18221;38.704;0.152;2023-02-15T08:16:26;10.20;99.90
10175;DHT22;18221;38.704;0.152;2023-02-15T08:19:03;10.20;99.90
10175;DHT22;18221;38.704;0.152;2023-02-15T08:21:35;10.30;99.90
10175;DHT22;18221;38.704;0.152;2023-02-15T08:24:07;10.30;99.90
10175;DHT22;18221;38.704;0.152;2023-02-15T08:26:38;8.70;99.90
10175;DHT22;18221;38.704;0.152;2023-02-15T08:29:09;10.30;99.90
10175;DHT22;18221;38.704;0.152;2023-02-15T08:31:39;10.30;99.90
10175;DHT22;18221;38.704;0.152;2023-02-15T08:34:08;10.40;99.90
10175;DHT22;18221;38.704;0.152;2023-02-15T08:36:37;10.40;99.90
10175;DHT22;18221;38.704;0.152;2023-02-15T08:39:08;10.40;99.90
10175;DHT22;18221;38.704;0.152;2023-02-15T08:41:38;10.50;99.90
10175;DHT22;18221;38.704;0.152;2023-02-15T08:44:09;10.50;99.90
10175;DHT22;18221;38.704;0.152;2023-02-15T08:46:39;10.50;99.90
10175;DHT22;18221;38.704;0.152;2023-02-15T08:49:09;10.60;99.90
10175;DHT22;18221;38.704;0.152;2023-02-15T08:51:43;10.70;99.90
10175;DHT22;18221;38.704;0.152;2023-02-15T08:54:15;10.70;99.90
10175;DHT22;18221;38.704;0.152;2023-02-15T08:56:46;10.80;99.90
10175;DHT22;18221;38.704;0.152;2023-02-15T08:59:16;10.80;99.90
10175;DHT22;18221;38.704;0.152;2023-02-15T09:01:48;10.80;99.90
10175;DHT22;18221;38.704;0.152;2023-02-15T09:04:17;10.80;99.90
10175;DHT22;18221;38.704;0.152;2023-02-15T09:06:47;10.90;99.90
10175;DHT22;18221;38.704;0.152;2023-02-15T09:09:18;10.90;99.90
10175;DHT22;18221;38.704;0.152;2023-02-15T09:11:49;10.90;99.90
10175;DHT22;18221;38.704;0.152;2023-02-15T09:14:20;10.90;99.90
10175;DHT22;18221;38.704;0.152;2023-02-15T09:16:51;10.90;99.90
10175;DHT22;18221;38.704;0.152;2023-02-15T09:19:21;10.90;99.90
10175;DHT22;18221;38.704;0.152;2023-02-15T09:21:51;10.90;99.90
10175;DHT22;18221;38.704;0.152;2023-02-15T09:24:23;10.90;99.90
10175;DHT22;18221;38.704;0.152;2023-02-15T09:26:52;10.90;99.90
10175;DHT22;18221;38.704;0.152;2023-02-15T09:29:20;10.90;99.90
10175;DHT22;18221;38.704;0.152;2023-02-15T09:31:50;11.00;99.90
10175;DHT22;18221;38.704;0.152;2023-02-15T09:34:21;11.00;99.90
10175;DHT22;18221;38.704;0.152;2023-02-15T09:36:50;11.00;99.90
10175;DHT22;18221;38.704;0.152;2023-02-15T09:39:20;11.00;99.90
10175;DHT22;18221;38.704;0.152;2023-02-15T09:42:19;11.10;99.90
10175;DHT22;18221;38.704;0.152;2023-02-15T09:48:32;11.20;99.90
10175;DHT22;18221;38.704;0.152;2023-02-15T09:51:31;11.20;99.90
10175;DHT22;18221;38.704;0.152;2023-02-15T09:54:32;11.30;99.90
10175;DHT22;18221;38.704;0.152;2023-02-15T09:57:21;11.40;99.90
10175;DHT22;18221;38.704;0.152;2023-02-15T10:00:02;11.30;99.90
10175;DHT22;18221;38.704;0.152;2023-02-15T10:02:50;11.30;99.90
10175;DHT22;18221;38.704;0.152;2023-02-15T10:05:40;11.40;99.90
10175;DHT22;18221;38.704;0.152;2023-02-15T10:08:42;11.40;99.90
10175;DHT22;18221;38.704;0.152;2023-02-15T10:11:27;11.50;99.90
10175;DHT22;18221;38.704;0.152;2023-02-15T10:17:32;11.60;99.90
10175;DHT22;18221;38.704;0.152;2023-02-15T10:20:21;11.70;99.90
10175;DHT22;18221;38.704;0.152;2023-02-15T10:25:58;11.80;99.90
10175;DHT22;18221;38.704;0.152;2023-02-15T10:28:42;11.70;99.90
10175;DHT22;18221;38.704;0.152;2023-02-15T10:31:22;11.70;99.90
10175;DHT22;18221;38.704;0.152;2023-02-15T10:34:15;11.70;99.90
10175;DHT22;18221;38.704;0.152;2023-02-15T10:37:06;11.70;99.90
10175;DHT22;18221;38.704;0.152;2023-02-15T10:40:00;11.70;99.90
10175;DHT22;18221;38.704;0.152;2023-02-15T10:42:44;11.80;99.90
10175;DHT22;18221;38.704;0.152;2023-02-15T10:45:33;11.90;99.90
10175;DHT22;18221;38.704;0.152;2023-02-15T10:48:31;12.00;99.90
10175;DHT22;18221;38.704;0.152;2023-02-15T10:51:22;12.10;99.90
10175;DHT22;18221;38.704;0.152;2023-02-15T10:54:13;12.20;99.90
10175;DHT22;18221;38.704;0.152;2023-02-15T10:56:54;12.30;99.90
10175;DHT22;18221;38.704;0.152;2023-02-15T10:59:41;12.40;99.90
10175;DHT22;18221;38.704;0.152;2023-02-15T11:02:34;12.60;99.90
10175;DHT22;18221;38.704;0.152;2023-02-15T11:05:22;12.90;99.90
10175;DHT22;18221;38.704;0.152;2023-02-15T11:08:04;12.90;99.90
10175;DHT22;18221;38.704;0.152;2023-02-15T11:10:39;12.90;99.90
10175;DHT22;18221;38.704;0.152;2023-02-15T11:13:13;12.90;99.90
10175;DHT22;18221;38.704;0.152;2023-02-15T11:15:47;12.90;99.90
10175;DHT22;18221;38.704;0.152;2023-02-15T11:18:26;13.00;99.90
10175;DHT22;18221;38.704;0.152;2023-02-15T11:21:03;12.90;99.90
10175;DHT22;18221;38.704;0.152;2023-02-15T11:23:41;13.00;99.90
10175;DHT22;18221;38.704;0.152;2023-02-15T11:26:15;12.90;99.90
10175;DHT22;18221;38.704;0.152;2023-02-15T11:28:55;12.90;99.90
10175;DHT22;18221;38.704;0.152;2023-02-15T11:31:34;12.90;99.90
10175;DHT22;18221;38.704;0.152;2023-02-15T11:34:18;12.70;99.90
10175;DHT22;18221;38.704;0.152;2023-02-15T11:36:56;12.70;99.90
10175;DHT22;18221;38.704;0.152;2023-02-15T11:39:30;12.70;99.90
10175;DHT22;18221;38.704;0.152;2023-02-15T11:42:04;12.60;99.90
10175;DHT22;18221;38.704;0.152;2023-02-15T11:44:41;12.60;99.90
10175;DHT22;18221;38.704;0.152;2023-02-15T11:47:24;12.60;99.90
10175;DHT22;18221;38.704;0.152;2023-02-15T11:49:55;12.70;99.90
10175;DHT22;18221;38.704;0.152;2023-02-15T11:52:24;12.60;99.90
10175;DHT22;18221;38.704;0.152;2023-02-15T11:54:53;12.70;99.90
10175;DHT22;18221;38.704;0.152;2023-02-15T11:57:26;12.80;99.90
10175;DHT22;18221;38.704;0.152;2023-02-15T12:00:06;12.80;99.90
10175;DHT22;18221;38.704;0.152;2023-02-15T12:02:46;12.40;99.90
10175;DHT22;18221;38.704;0.152;2023-02-15T12:05:24;12.90;99.90
10175;DHT22;18221;38.704;0.152;2023-02-15T12:07:57;13.10;99.90
10175;DHT22;18221;38.704;0.152;2023-02-15T12:10:34;13.30;99.90
10175;DHT22;18221;38.704;0.152;2023-02-15T12:13:11;13.20;99.90
10175;DHT22;18221;38.704;0.152;2023-02-15T12:15:42;13.10;99.90
10175;DHT22;18221;38.704;0.152;2023-02-15T12:18:35;13.10;99.90
10175;DHT22;18221;38.704;0.152;2023-02-15T12:21:09;13.00;99.90
10175;DHT22;18221;38.704;0.152;2023-02-15T12:23:43;13.00;99.90
10175;DHT22;18221;38.704;0.152;2023-02-15T12:26:23;13.00;99.90
10175;DHT22;18221;38.704;0.152;2023-02-15T12:28:54;12.90;99.90
10175;DHT22;18221;38.704;0.152;2023-02-15T12:31:38;12.90;99.90
10175;DHT22;18221;38.704;0.152;2023-02-15T12:34:12;12.90;99.90
10175;DHT22;18221;38.704;0.152;2023-02-15T12:36:48;12.80;99.90
10175;DHT22;18221;38.704;0.152;2023-02-15T12:39:22;12.70;99.90
10175;DHT22;18221;38.704;0.152;2023-02-15T12:42:01;12.60;99.90
10175;DHT22;18221;38.704;0.152;2023-02-15T12:44:32;12.60;99.90
10175;DHT22;18221;38.704;0.152;2023-02-15T12:47:06;12.60;99.90
10175;DHT22;18221;38.704;0.152;2023-02-15T12:50:06;12.50;99.90
10175;DHT22;18221;38.704;0.152;2023-02-15T12:52:43;12.50;99.90
10175;DHT22;18221;38.704;0.152;2023-02-15T12:55:22;12.40;99.90
10175;DHT22;18221;38.704;0.152;2023-02-15T12:58:16;12.50;99.90
10175;DHT22;18221;38.704;0.152;2023-02-15T13:00:46;12.50;99.90
10175;DHT22;18221;38.704;0.152;2023-02-15T13:03:20;12.50;99.90
10175;DHT22;18221;38.704;0.152;2023-02-15T13:05:51;12.50;99.90
10175;DHT22;18221;38.704;0.152;2023-02-15T13:08:28;12.50;99.90
10175;DHT22;18221;38.704;0.152;2023-02-15T13:11:00;12.50;99.90
10175;DHT22;18221;38.704;0.152;2023-02-15T13:13:33;12.50;99.90
10175;DHT22;18221;38.704;0.152;2023-02-15T13:16:05;12.50;99.90
10175;DHT22;18221;38.704;0.152;2023-02-15T13:18:42;12.40;99.90
10175;DHT22;18221;38.704;0.152;2023-02-15T13:21:14;12.50;99.90
10175;DHT22;18221;38.704;0.152;2023-02-15T13:23:47;12.40;99.90
10175;DHT22;18221;38.704;0.152;2023-02-15T13:26:21;12.40;99.90
10175;DHT22;18221;38.704;0.152;2023-02-15T13:28:55;12.50;99.90
10175;DHT22;18221;38.704;0.152;2023-02-15T13:31:29;12.40;99.90
10175;DHT22;18221;38.704;0.152;2023-02-15T13:34:03;12.40;99.90
10175;DHT22;18221;38.704;0.152;2023-02-15T13:36:45;12.40;99.90
10175;DHT22;18221;38.704;0.152;2023-02-15T13:39:27;12.40;99.90
10175;DHT22;18221;38.704;0.152;2023-02-15T13:42:12;12.40;99.90
10175;DHT22;18221;38.704;0.152;2023-02-15T13:45:02;12.30;99.90
10175;DHT22;18221;38.704;0.152;2023-02-15T13:47:54;12.40;99.90
10175;DHT22;18221;38.704;0.152;2023-02-15T13:50:37;12.40;99.90
10175;DHT22;18221;38.704;0.152;2023-02-15T13:53:32;12.50;99.90
10175;DHT22;18221;38.704;0.152;2023-02-15T13:56:17;12.50;99.90
10175;DHT22;18221;38.704;0.152;2023-02-15T13:59:21;12.60;99.90
10175;DHT22;18221;38.704;0.152;2023-02-15T14:02:46;12.70;99.90
10175;DHT22;18221;38.704;0.152;2023-02-15T14:05:43;12.70;99.90
10175;DHT22;18221;38.704;0.152;2023-02-15T14:08:39;12.80;99.90
10175;DHT22;18221;38.704;0.152;2023-02-15T14:11:22;12.80;99.90
10175;DHT22;18221;38.704;0.152;2023-02-15T14:14:39;12.90;99.90
10175;DHT22;18221;38.704;0.152;2023-02-15T14:17:43;12.80;99.90
10175;DHT22;18221;38.704;0.152;2023-02-15T14:20:25;12.80;99.90
10175;DHT22;18221;38.704;0.152;2023-02-15T14:23:06;12.80;99.90
10175;DHT22;18221;38.704;0.152;2023-02-15T14:25:58;12.70;99.90
10175;DHT22;18221;38.704;0.152;2023-02-15T14:28:36;12.70;99.90
10175;DHT22;18221;38.704;0.152;2023-02-15T14:31:11;12.60;99.90
10175;DHT22;18221;38.704;0.152;2023-02-15T14:33:47;12.60;99.90
10175;DHT22;18221;38.704;0.152;2023-02-15T14:36:21;12.60;99.90
10175;DHT22;18221;38.704;0.152;2023-02-15T14:39:02;12.50;99.90
10175;DHT22;18221;38.704;0.152;2023-02-15T14:42:01;12.50;99.90
10175;DHT22;18221;38.704;0.152;2023-02-15T14:44:40;12.50;99.90
10175;DHT22;18221;38.704;0.152;2023-02-15T14:47:19;12.50;99.90
10175;DHT22;18221;38.704;0.152;2023-02-15T14:49:53;12.50;99.90
10175;DHT22;18221;38.704;0.152;2023-02-15T14:52:22;12.40;99.90
10175;DHT22;18221;38.704;0.152;2023-02-15T14:54:56;12.40;99.90
10175;DHT22;18221;38.704;0.152;2023-02-15T14:57:30;12.40;99.90
10175;DHT22;18221;38.704;0.152;2023-02-15T15:00:00;12.40;99.90
10175;DHT22;18221;38.704;0.152;2023-02-15T15:02:51;12.40;99.90
10175;DHT22;18221;38.704;0.152;2023-02-15T15:05:23;12.40;99.90
10175;DHT22;18221;38.704;0.152;2023-02-15T15:07:59;12.40;99.90
10175;DHT22;18221;38.704;0.152;2023-02-15T15:10:37;12.40;99.90
10175;DHT22;18221;38.704;0.152;2023-02-15T15:13:38;12.40;99.90
10175;DHT22;18221;38.704;0.152;2023-02-15T15:16:46;12.40;99.90
10175;DHT22;18221;38.704;0.152;2023-02-15T15:22:40;12.50;99.90
10175;DHT22;18221;38.704;0.152;2023-02-15T15:25:12;12.50;99.90
10175;DHT22;18221;38.704;0.152;2023-02-15T15:31:47;12.50;99.90
10175;DHT22;18221;38.704;0.152;2023-02-15T15:34:48;12.50;99.90
10175;DHT22;18221;38.704;0.152;2023-02-15T15:41:10;12.40;99.90
10175;DHT22;18221;38.704;0.152;2023-02-15T15:47:52;12.40;99.90
10175;DHT22;18221;38.704;0.152;2023-02-15T15:50:33;12.40;99.90
10175;DHT22;18221;38.704;0.152;2023-02-15T15:53:10;12.30;99.90
10175;DHT22;18221;38.704;0.152;2023-02-15T15:55:49;12.40;99.90
10175;DHT22;18221;38.704;0.152;2023-02-15T15:58:22;12.40;99.90
10175;DHT22;18221;38.704;0.152;2023-02-15T16:00:54;12.40;99.90
10175;DHT22;18221;38.704;0.152;2023-02-15T16:03:27;12.40;99.90
10175;DHT22;18221;38.704;0.152;2023-02-15T16:05:57;12.40;99.90
10175;DHT22;18221;38.704;0.152;2023-02-15T16:08:34;12.30;99.90
10175;DHT22;18221;38.704;0.152;2023-02-15T16:11:12;12.30;99.90
10175;DHT22;18221;38.704;0.152;2023-02-15T16:13:47;12.20;99.90
10175;DHT22;18221;38.704;0.152;2023-02-15T16:16:21;12.20;99.90
10175;DHT22;18221;38.704;0.152;2023-02-15T16:18:54;10.50;99.90
10175;DHT22;18221;38.704;0.152;2023-02-15T16:21:29;12.20;99.90
10175;DHT22;18221;38.704;0.152;2023-02-15T16:24:18;12.20;99.90
10175;DHT22;18221;38.704;0.152;2023-02-15T16:33:05;12.10;99.90
10175;DHT22;18221;38.704;0.152;2023-02-15T16:35:36;12.00;99.90
10175;DHT22;18221;38.704;0.152;2023-02-15T16:38:09;12.00;99.90
10175;DHT22;18221;38.704;0.152;2023-02-15T16:40:48;12.00;99.90
10175;DHT22;18221;38.704;0.152;2023-02-15T16:43:26;11.90;99.90
10175;DHT22;18221;38.704;0.152;2023-02-15T16:46:06;12.00;99.90
10175;DHT22;18221;38.704;0.152;2023-02-15T16:48:41;11.90;99.90
10175;DHT22;18221;38.704;0.152;2023-02-15T16:51:20;11.80;99.90
10175;DHT22;18221;38.704;0.152;2023-02-15T16:53:53;11.80;99.90
10175;DHT22;18221;38.704;0.152;2023-02-15T16:56:24;11.80;99.90
10175;DHT22;18221;38.704;0.152;2023-02-15T16:58:55;11.80;99.90
10175;DHT22;18221;38.704;0.152;2023-02-15T17:01:30;11.80;99.90
10175;DHT22;18221;38.704;0.152;2023-02-15T17:04:21;11.80;99.90
10175;DHT22;18221;38.704;0.152;2023-02-15T17:06:59;11.80;99.90
10175;DHT22;18221;38.704;0.152;2023-02-15T17:09:31;11.80;99.90
10175;DHT22;18221;38.704;0.152;2023-02-15T17:12:00;11.80;99.90
10175;DHT22;18221;38.704;0.152;2023-02-15T17:14:30;11.80;99.90